Nimbus Weather Services

Informe meteorológico para Carrasco, Uruguay. El informe se hizo hace 60 minutos, a las 00:00 UTC. El viento soplaba a una velocidad de 1.5 m/s (3.5 millas por hora) del norte-noroeste (340°). La temperatura era 12 °C (54 °F), con un punto de rocío de 6 °C (43 °F). La presión atmosférica era 1014 hPa (29.94 inHg). Había una humedad relativa del 66.7%. Cielo: sin nubes por debajo de 1500 metros (5000 pies) y sin presencia de cumulusnimbos. En aquel momento la visibilidad global era mayor de 10 kilómetros (6.2 millas).

La clave METAR es: SUMU 230000Z 34003KT CAVOK 12/06 Q1014 NOSIG

Consulta realizada el Martes 22 de Octubre de 2019 21:59. Tiempo usado para generar esta pagina:8,426 ms.